createdAt,value
2023-04-11T00:00:06.058Z,10.44
2023-04-11T00:01:05.906Z,10.36
2023-04-11T00:02:05.875Z,10.30
2023-04-11T00:03:05.896Z,10.09
2023-04-11T00:04:06.107Z,10.05
2023-04-11T00:05:06.004Z,9.94
2023-04-11T00:06:05.758Z,9.91
2023-04-11T00:07:05.765Z,9.86
2023-04-11T00:08:05.759Z,9.87
2023-04-11T00:09:05.819Z,9.84
2023-04-11T00:10:05.780Z,9.79
2023-04-11T00:11:05.910Z,9.84
2023-04-11T00:12:05.760Z,9.81
2023-04-11T00:13:05.680Z,9.78
2023-04-11T00:14:05.679Z,9.79
2023-04-11T00:15:05.669Z,9.79
2023-04-11T00:16:05.837Z,9.87
2023-04-11T00:17:05.644Z,9.79
2023-04-11T00:18:05.744Z,9.79
2023-04-11T00:19:05.615Z,9.66
2023-04-11T00:20:05.585Z,9.58
2023-04-11T00:21:05.673Z,9.65
2023-04-11T00:22:05.795Z,9.69
2023-04-11T00:23:05.580Z,9.72
2023-04-11T00:24:05.577Z,9.69
2023-04-11T00:25:05.599Z,9.71
2023-04-11T00:26:05.655Z,9.71
2023-04-11T00:27:05.584Z,9.74
2023-04-11T00:28:05.575Z,9.76
2023-04-11T00:29:05.499Z,9.68
2023-04-11T00:30:05.527Z,9.71
2023-04-11T00:31:05.642Z,9.68
2023-04-11T00:32:05.548Z,9.72
2023-04-11T00:33:05.596Z,9.61
2023-04-11T00:34:05.564Z,9.69
2023-04-11T00:35:05.443Z,9.58
2023-04-11T00:36:05.706Z,9.58
2023-04-11T00:37:05.454Z,9.61
2023-04-11T00:38:05.453Z,9.60
2023-04-11T00:39:05.378Z,9.47
2023-04-11T00:40:05.384Z,9.53
2023-04-11T00:41:05.431Z,9.48
2023-04-11T00:42:05.349Z,9.48
2023-04-11T00:43:05.372Z,9.50
2023-04-11T00:44:05.344Z,9.46
2023-04-11T00:45:05.324Z,9.38
2023-04-11T00:46:05.468Z,9.29
2023-04-11T00:47:05.295Z,9.33
2023-04-11T00:48:05.433Z,9.31
2023-04-11T00:49:05.274Z,9.39
2023-04-11T00:50:05.366Z,9.47
2023-04-11T00:51:05.405Z,9.29
2023-04-11T00:52:05.264Z,9.29
2023-04-11T00:53:05.247Z,9.43
2023-04-11T00:54:05.196Z,9.38
2023-04-11T00:55:05.183Z,9.35
2023-04-11T00:56:05.284Z,9.42
2023-04-11T00:57:05.125Z,9.38
2023-04-11T00:58:05.341Z,9.36
2023-04-11T00:59:05.183Z,9.36
2023-04-11T01:00:05.278Z,9.33
2023-04-11T01:01:05.257Z,9.35
2023-04-11T01:02:05.155Z,9.28
2023-04-11T01:03:05.318Z,9.39
2023-04-11T01:04:05.331Z,9.35
2023-04-11T01:05:05.091Z,9.32
2023-04-11T01:06:05.183Z,9.32
2023-04-11T01:07:05.070Z,9.32
2023-04-11T01:08:05.084Z,9.39
2023-04-11T01:09:05.093Z,9.46
2023-04-11T01:10:05.018Z,9.33
2023-04-11T01:11:05.130Z,9.38
2023-04-11T01:12:05.106Z,9.42
2023-04-11T01:13:05.029Z,9.39
2023-04-11T01:14:05.144Z,9.33
2023-04-11T01:15:04.985Z,9.35
2023-04-11T01:16:05.200Z,9.36
2023-04-11T01:17:05.227Z,9.38
2023-04-11T01:18:04.968Z,9.32
2023-04-11T01:19:04.975Z,9.35
2023-04-11T01:20:05.025Z,9.42
2023-04-11T01:21:05.152Z,9.29
2023-04-11T01:22:04.986Z,9.39
2023-04-11T01:23:04.901Z,9.36
2023-04-11T01:24:04.944Z,9.26
2023-04-11T01:25:04.919Z,9.28
2023-04-11T01:26:04.940Z,9.29
2023-04-11T01:27:04.902Z,9.18
2023-04-11T01:28:04.838Z,9.21
2023-04-11T01:29:04.849Z,9.29
2023-04-11T01:30:04.963Z,9.18
2023-04-11T01:31:04.984Z,9.21
2023-04-11T01:32:04.834Z,9.21
2023-04-11T01:33:04.828Z,9.15
2023-04-11T01:34:04.781Z,9.13
2023-04-11T01:35:04.761Z,9.20
2023-04-11T01:36:04.817Z,9.18
2023-04-11T01:37:04.764Z,9.21
2023-04-11T01:38:04.816Z,9.18
2023-04-11T01:39:04.741Z,9.26
2023-04-11T01:40:04.733Z,9.26
2023-04-11T01:41:04.780Z,9.24
2023-04-11T01:42:04.706Z,9.23
2023-04-11T01:43:04.663Z,9.23
2023-04-11T01:44:04.692Z,9.23
2023-04-11T01:45:04.722Z,9.31
2023-04-11T01:46:04.770Z,9.33
2023-04-11T01:47:04.642Z,9.18
2023-04-11T01:48:04.800Z,9.20
2023-04-11T01:49:04.753Z,9.32
2023-04-11T01:50:04.647Z,9.21
2023-04-11T01:51:04.746Z,9.24
2023-04-11T01:52:04.571Z,9.24
2023-04-11T01:53:04.566Z,9.33
2023-04-11T01:54:04.619Z,9.31
2023-04-11T01:55:04.519Z,9.26
2023-04-11T01:56:04.609Z,9.28
2023-04-11T01:57:04.547Z,9.32
2023-04-11T01:58:04.525Z,9.31
2023-04-11T01:59:04.491Z,9.31
2023-04-11T02:00:04.601Z,9.38
2023-04-11T02:01:04.792Z,9.29
2023-04-11T02:02:04.689Z,9.28
2023-04-11T02:03:04.660Z,9.35
2023-04-11T02:04:04.577Z,9.31
2023-04-11T02:05:04.477Z,9.29
2023-04-11T02:06:04.481Z,9.33
2023-04-11T02:07:04.360Z,9.29
2023-04-11T02:08:04.387Z,9.29
2023-04-11T02:09:04.430Z,9.36
2023-04-11T02:10:04.381Z,9.28
2023-04-11T02:11:04.497Z,9.31
2023-04-11T02:12:04.342Z,9.36
2023-04-11T02:13:04.326Z,9.32
2023-04-11T02:14:04.376Z,9.28
2023-04-11T02:15:04.302Z,9.33
2023-04-11T02:16:04.409Z,9.31
2023-04-11T02:17:04.225Z,9.32
2023-04-11T02:18:04.348Z,9.36
2023-04-11T02:19:04.270Z,9.33
2023-04-11T02:20:04.252Z,9.26
2023-04-11T02:21:04.341Z,9.32
2023-04-11T02:22:04.302Z,9.33
2023-04-11T02:23:04.237Z,9.42
2023-04-11T02:24:04.288Z,9.36
2023-04-11T02:25:04.190Z,9.35
2023-04-11T02:26:04.296Z,9.28
2023-04-11T02:27:04.184Z,9.31
2023-04-11T02:28:06.738Z,9.26
2023-04-11T02:29:04.152Z,9.23
2023-04-11T02:30:04.120Z,9.21
2023-04-11T02:31:04.652Z,9.24
2023-04-11T02:32:04.208Z,9.17
2023-04-11T02:33:04.187Z,9.20
2023-04-11T02:34:04.148Z,9.18
2023-04-11T02:35:04.079Z,9.23
2023-04-11T02:36:04.256Z,9.13
2023-04-11T02:37:04.083Z,9.11
2023-04-11T02:38:04.119Z,9.23
2023-04-11T02:39:04.032Z,9.17
2023-04-11T02:40:04.018Z,9.23
2023-04-11T02:41:04.252Z,9.14
2023-04-11T02:42:04.032Z,9.05
2023-04-11T02:43:03.989Z,9.04
2023-04-11T02:44:03.989Z,8.95
2023-04-11T02:45:04.024Z,8.91
2023-04-11T02:46:12.862Z,8.96
2023-04-11T02:47:05.050Z,8.95
2023-04-11T02:48:03.993Z,8.92
2023-04-11T02:49:03.962Z,8.95
2023-04-11T02:50:04.016Z,8.84
2023-04-11T02:51:03.958Z,8.84
2023-04-11T02:52:03.896Z,8.87
2023-04-11T02:53:03.880Z,8.94
2023-04-11T02:54:03.886Z,8.96
2023-04-11T02:55:03.855Z,8.94
2023-04-11T02:56:03.917Z,8.99
2023-04-11T02:57:03.817Z,8.95
2023-04-11T02:58:03.838Z,8.95
2023-04-11T02:59:03.799Z,8.95
2023-04-11T03:00:03.899Z,8.92
2023-04-11T03:01:03.963Z,8.95
2023-04-11T03:02:03.909Z,8.99
2023-04-11T03:03:03.897Z,9.02
2023-04-11T03:04:03.937Z,8.98
2023-04-11T03:05:03.759Z,9.04
2023-04-11T03:06:03.892Z,8.94
2023-04-11T03:07:03.732Z,8.99
2023-04-11T03:08:03.683Z,8.94
2023-04-11T03:09:03.725Z,8.94
2023-04-11T03:10:03.685Z,8.95
2023-04-11T03:11:03.746Z,8.81
2023-04-11T03:12:03.680Z,8.86
2023-04-11T03:13:03.674Z,8.73
2023-04-11T03:14:03.655Z,8.68
2023-04-11T03:15:03.639Z,8.76
2023-04-11T03:16:03.748Z,8.74
2023-04-11T03:17:03.619Z,8.76
2023-04-11T03:18:03.649Z,8.80
2023-04-11T03:19:03.591Z,8.71
2023-04-11T03:20:03.767Z,8.65
2023-04-11T03:21:03.660Z,8.74
2023-04-11T03:22:03.654Z,8.66
2023-04-11T03:23:03.640Z,8.74
2023-04-11T03:24:03.595Z,8.70
2023-04-11T03:25:03.546Z,8.91
2023-04-11T03:26:03.511Z,8.83
2023-04-11T03:27:03.551Z,8.89
2023-04-11T03:28:03.494Z,8.98
2023-04-11T03:29:03.499Z,8.94
2023-04-11T03:30:03.488Z,8.96
2023-04-11T03:31:03.560Z,9.05
2023-04-11T03:32:04.564Z,8.94
2023-04-11T03:33:03.458Z,8.98
2023-04-11T03:34:03.429Z,9.02
2023-04-11T03:35:03.449Z,9.01
2023-04-11T03:36:03.455Z,9.01
2023-04-11T03:37:03.534Z,8.99
2023-04-11T03:38:03.448Z,8.95
2023-04-11T03:39:03.397Z,8.87
2023-04-11T03:40:03.383Z,8.96
2023-04-11T03:41:03.415Z,8.92
2023-04-11T03:42:03.431Z,9.02
2023-04-11T03:43:04.878Z,9.01
2023-04-11T03:44:03.317Z,8.94
2023-04-11T03:45:03.312Z,8.95
2023-04-11T03:46:03.326Z,8.92
2023-04-11T03:47:03.422Z,8.89
2023-04-11T03:48:03.342Z,8.87
2023-04-11T03:49:03.299Z,8.92
2023-04-11T03:50:03.377Z,8.91
2023-04-11T03:51:03.297Z,8.94
2023-04-11T03:52:03.338Z,8.86
2023-04-11T03:53:03.248Z,8.84
2023-04-11T03:54:03.284Z,8.74
2023-04-11T03:55:03.199Z,8.73
2023-04-11T03:56:03.181Z,8.79
2023-04-11T03:57:03.283Z,8.81
2023-04-11T03:58:03.184Z,8.87
2023-04-11T03:59:03.132Z,8.91
2023-04-11T04:00:03.247Z,8.80
2023-04-11T04:01:03.147Z,8.87
2023-04-11T04:02:03.343Z,8.80
2023-04-11T04:03:03.345Z,8.74
2023-04-11T04:04:03.716Z,8.73
2023-04-11T04:05:03.137Z,8.80
2023-04-11T04:06:03.129Z,8.76
2023-04-11T04:07:03.196Z,8.74
2023-04-11T04:08:03.178Z,8.77
2023-04-11T04:09:03.066Z,8.70
2023-04-11T04:10:03.052Z,8.71
2023-04-11T04:11:03.020Z,8.79
2023-04-11T04:12:03.038Z,8.76
2023-04-11T04:13:03.004Z,8.68
2023-04-11T04:14:02.972Z,8.71
2023-04-11T04:15:02.951Z,8.62
2023-04-11T04:16:03.843Z,8.68
2023-04-11T04:17:03.059Z,8.66
2023-04-11T04:18:03.037Z,8.68
2023-04-11T04:19:02.974Z,8.63
2023-04-11T04:20:02.975Z,8.61
2023-04-11T04:21:02.937Z,8.61
2023-04-11T04:22:03.004Z,8.56
2023-04-11T04:23:02.954Z,8.52
2023-04-11T04:24:02.859Z,8.50
2023-04-11T04:25:02.870Z,8.55
2023-04-11T04:26:02.836Z,8.50
2023-04-11T04:27:02.882Z,8.50
2023-04-11T04:28:02.819Z,8.44
2023-04-11T04:29:02.794Z,8.44
2023-04-11T04:30:04.039Z,8.44
2023-04-11T04:31:02.856Z,8.30
2023-04-11T04:32:02.938Z,8.34
2023-04-11T04:33:02.778Z,8.29
2023-04-11T04:34:02.769Z,8.23
2023-04-11T04:35:02.765Z,8.23
2023-04-11T04:36:02.739Z,8.37
2023-04-11T04:37:03.205Z,8.19
2023-04-11T04:38:02.807Z,8.26
2023-04-11T04:39:02.697Z,8.29
2023-04-11T04:40:02.653Z,8.18
2023-04-11T04:41:02.781Z,8.18
2023-04-11T04:42:02.828Z,8.15
2023-04-11T04:43:02.603Z,8.19
2023-04-11T04:44:02.630Z,8.16
2023-04-11T04:45:02.626Z,8.12
2023-04-11T04:46:02.637Z,8.16
2023-04-11T04:47:02.679Z,8.16
2023-04-11T04:48:02.577Z,8.19
2023-04-11T04:49:02.694Z,8.20
2023-04-11T04:50:02.524Z,8.11
2023-04-11T04:51:02.532Z,8.01
2023-04-11T04:52:02.550Z,8.01
2023-04-11T04:53:02.523Z,8.01
2023-04-11T04:54:02.513Z,7.93
2023-04-11T04:55:02.478Z,7.87
2023-04-11T04:56:02.546Z,7.87
2023-04-11T04:57:02.602Z,7.85
2023-04-11T04:58:02.472Z,7.90
2023-04-11T04:59:02.446Z,7.82
2023-04-11T05:00:02.501Z,7.80
2023-04-11T05:01:02.568Z,7.80
2023-04-11T05:02:02.571Z,7.75
2023-04-11T05:03:02.521Z,7.75
2023-04-11T05:04:03.082Z,7.72
2023-04-11T05:05:02.423Z,7.69
2023-04-11T05:06:02.377Z,7.69
2023-04-11T05:07:02.434Z,7.60
2023-04-11T05:08:02.344Z,7.61
2023-04-11T05:09:02.323Z,7.60
2023-04-11T05:10:02.449Z,7.64
2023-04-11T05:11:02.438Z,7.53
2023-04-11T05:12:02.510Z,7.63
2023-04-11T05:13:02.376Z,7.68
2023-04-11T05:14:02.347Z,7.55
2023-04-11T05:15:02.410Z,7.68
2023-04-11T05:16:02.226Z,7.60
2023-04-11T05:17:02.580Z,7.57
2023-04-11T05:18:02.354Z,7.53
2023-04-11T05:19:02.392Z,7.60
2023-04-11T05:20:02.276Z,7.63
2023-04-11T05:21:02.265Z,7.60
2023-04-11T05:22:02.397Z,7.58
2023-04-11T05:23:02.268Z,7.43
2023-04-11T05:24:02.238Z,7.52
2023-04-11T05:25:02.271Z,7.61
2023-04-11T05:26:02.126Z,7.58
2023-04-11T05:27:02.287Z,7.60
2023-04-11T05:28:02.120Z,7.60
2023-04-11T05:29:02.219Z,7.61
2023-04-11T05:30:02.103Z,7.67
2023-04-11T05:31:02.226Z,7.69
2023-04-11T05:32:02.219Z,7.80
2023-04-11T05:33:02.149Z,7.85
2023-04-11T05:34:02.165Z,7.89
2023-04-11T05:35:02.091Z,7.92
2023-04-11T05:36:02.086Z,7.87
2023-04-11T05:37:02.213Z,7.93
2023-04-11T05:38:02.046Z,8.04
2023-04-11T05:39:02.078Z,8.16
2023-04-11T05:40:01.991Z,8.18
2023-04-11T05:41:02.114Z,8.15
2023-04-11T05:42:01.927Z,8.22
2023-04-11T05:43:01.904Z,8.20
2023-04-11T05:44:01.926Z,8.28
2023-04-11T05:45:01.864Z,8.44
2023-04-11T05:46:01.928Z,8.50
2023-04-11T05:47:02.051Z,8.41
2023-04-11T05:48:01.857Z,8.50
2023-04-11T05:49:01.816Z,8.59
2023-04-11T05:50:01.950Z,8.55
2023-04-11T05:51:01.787Z,8.56
2023-04-11T05:52:01.812Z,8.63
2023-04-11T05:53:01.772Z,8.98
2023-04-11T05:54:01.845Z,9.14
2023-04-11T05:55:01.790Z,9.28
2023-04-11T05:56:01.755Z,9.36
2023-04-11T05:57:01.749Z,9.29
2023-04-11T05:58:01.727Z,9.23
2023-04-11T05:59:01.723Z,9.14
2023-04-11T06:00:01.867Z,9.10
2023-04-11T06:01:01.728Z,9.08
2023-04-11T06:02:01.739Z,9.10
2023-04-11T06:03:01.818Z,9.08
2023-04-11T06:04:02.097Z,9.10
2023-04-11T06:05:01.727Z,9.04
2023-04-11T06:06:01.635Z,8.98
2023-04-11T06:07:01.634Z,9.05
2023-04-11T06:08:01.598Z,9.10
2023-04-11T06:09:01.597Z,9.08
2023-04-11T06:10:01.594Z,9.18
2023-04-11T06:11:01.577Z,9.21
2023-04-11T06:12:01.585Z,9.20
2023-04-11T06:13:01.538Z,9.21
2023-04-11T06:14:01.542Z,9.23
2023-04-11T06:15:01.540Z,9.23
2023-04-11T06:16:01.545Z,9.31
2023-04-11T06:17:01.528Z,9.28
2023-04-11T06:18:01.769Z,9.31
2023-04-11T06:19:01.496Z,9.31
2023-04-11T06:20:02.955Z,9.31
2023-04-11T06:21:01.462Z,9.32
2023-04-11T06:22:01.506Z,9.23
2023-04-11T06:23:01.468Z,9.23
2023-04-11T06:24:01.419Z,9.17
2023-04-11T06:25:01.410Z,9.11
2023-04-11T06:26:01.416Z,9.08
2023-04-11T06:27:01.408Z,9.01
2023-04-11T06:28:01.393Z,9.08
2023-04-11T06:29:01.362Z,9.13
2023-04-11T06:30:01.390Z,9.20
2023-04-11T06:31:01.399Z,9.21
2023-04-11T06:32:01.331Z,9.24
2023-04-11T06:33:01.370Z,9.31
2023-04-11T06:34:01.333Z,9.33
2023-04-11T06:35:01.298Z,9.32
2023-04-11T06:36:01.327Z,9.40
2023-04-11T06:37:01.281Z,9.38
2023-04-11T06:38:01.284Z,9.51
2023-04-11T06:39:01.255Z,9.54
2023-04-11T06:40:01.264Z,9.47
2023-04-11T06:41:01.238Z,9.51
2023-04-11T06:42:01.256Z,9.50
2023-04-11T06:43:01.256Z,9.64
2023-04-11T06:44:01.232Z,9.58
2023-04-11T06:45:01.183Z,9.65
2023-04-11T06:46:01.189Z,9.56
2023-04-11T06:47:01.216Z,9.61
2023-04-11T06:48:01.192Z,9.57
2023-04-11T06:49:01.140Z,9.60
2023-04-11T06:50:01.140Z,9.69
2023-04-11T06:51:01.126Z,9.66
2023-04-11T06:52:01.114Z,9.65
2023-04-11T06:53:01.108Z,9.60
2023-04-11T06:54:01.101Z,9.64
2023-04-11T06:55:01.080Z,9.58
2023-04-11T06:56:01.077Z,9.57
2023-04-11T06:57:01.050Z,9.60
2023-04-11T06:58:01.073Z,9.58
2023-04-11T06:59:01.025Z,9.57
2023-04-11T07:00:01.033Z,9.58
2023-04-11T07:01:01.009Z,9.60
2023-04-11T07:02:01.103Z,9.74
2023-04-11T07:03:01.434Z,9.81
2023-04-11T07:04:01.404Z,9.89
2023-04-11T07:05:01.012Z,10.02
2023-04-11T07:06:00.955Z,10.12
2023-04-11T07:07:00.939Z,10.09
2023-04-11T07:08:01.009Z,10.01
2023-04-11T07:09:00.916Z,10.09
2023-04-11T07:10:00.913Z,10.05
2023-04-11T07:11:00.912Z,10.02
2023-04-11T07:12:00.912Z,10.04
2023-04-11T07:13:00.924Z,9.97
2023-04-11T07:14:00.896Z,10.01
2023-04-11T07:15:00.843Z,9.97
2023-04-11T07:16:00.883Z,9.96
2023-04-11T07:17:00.823Z,9.53
2023-04-11T07:18:00.890Z,8.79
2023-04-11T07:19:00.825Z,8.28
2023-04-11T07:20:00.811Z,7.86
2023-04-11T07:21:00.774Z,7.58
2023-04-11T07:22:00.769Z,7.50
2023-04-11T07:23:00.802Z,7.25
2023-04-11T07:24:01.048Z,7.10
2023-04-11T07:25:00.732Z,6.97
2023-04-11T07:26:00.750Z,7.03
2023-04-11T07:27:00.706Z,7.09
2023-04-11T07:28:00.785Z,6.98
2023-04-11T07:29:00.746Z,6.91
2023-04-11T07:30:00.783Z,7.10
2023-04-11T07:31:00.690Z,7.09
2023-04-11T07:32:00.865Z,7.09
2023-04-11T07:33:00.720Z,7.13
2023-04-11T07:34:00.645Z,7.07
2023-04-11T07:35:00.635Z,7.05
2023-04-11T07:36:00.666Z,7.09
2023-04-11T07:37:00.601Z,7.09
2023-04-11T07:38:00.609Z,7.27
2023-04-11T07:39:00.572Z,7.30
2023-04-11T07:40:00.570Z,7.28
2023-04-11T07:41:00.601Z,7.24
2023-04-11T07:42:00.579Z,7.34
2023-04-11T07:43:00.524Z,7.50
2023-04-11T07:44:00.527Z,7.50
2023-04-11T07:45:00.519Z,7.68
2023-04-11T07:46:00.628Z,7.52
2023-04-11T07:47:00.509Z,7.58
2023-04-11T07:48:00.520Z,7.53
2023-04-11T07:49:00.455Z,7.92
2023-04-11T07:50:00.512Z,8.08
2023-04-11T07:51:01.054Z,8.12
2023-04-11T07:52:00.451Z,8.18
2023-04-11T07:53:00.414Z,8.36
2023-04-11T07:54:00.443Z,8.48
2023-04-11T07:55:00.397Z,8.56
2023-04-11T07:56:00.393Z,8.84
2023-04-11T07:57:00.367Z,8.94
2023-04-11T07:58:00.418Z,9.20
2023-04-11T07:59:00.345Z,9.39
2023-04-11T08:00:00.340Z,9.31
2023-04-11T08:01:00.362Z,9.36
2023-04-11T08:02:00.458Z,9.43
2023-04-11T08:03:00.645Z,9.48
2023-04-11T08:04:00.903Z,9.60
2023-04-11T08:05:00.472Z,9.65
2023-04-11T08:06:00.362Z,9.68
2023-04-11T08:07:00.255Z,9.81
2023-04-11T08:08:00.244Z,9.84
2023-04-11T08:09:00.230Z,9.79
2023-04-11T08:10:00.271Z,9.96
2023-04-11T08:11:00.244Z,9.89
2023-04-11T08:12:00.199Z,9.97
2023-04-11T08:13:00.192Z,9.91
2023-04-11T08:14:00.173Z,9.86
2023-04-11T08:15:00.169Z,9.76
2023-04-11T08:16:00.264Z,9.53
2023-04-11T08:17:00.204Z,9.46
2023-04-11T08:18:00.236Z,9.43
2023-04-11T08:19:00.153Z,9.29
2023-04-11T08:20:02.182Z,9.42
2023-04-11T08:21:00.131Z,9.50
2023-04-11T08:22:00.141Z,9.69
2023-04-11T08:23:00.087Z,10.05
2023-04-11T08:24:00.068Z,10.52
2023-04-11T08:25:00.074Z,10.64
2023-04-11T08:26:00.069Z,10.78
2023-04-11T08:27:00.031Z,10.63
2023-04-11T08:28:00.019Z,10.56
2023-04-11T08:29:00.019Z,10.36
2023-04-11T08:29:59.994Z,10.15
2023-04-11T08:31:00.066Z,10.20
2023-04-11T08:31:59.970Z,10.14
2023-04-11T08:32:59.995Z,10.20
2023-04-11T08:34:01.222Z,10.22
2023-04-11T08:34:59.949Z,10.32
2023-04-11T08:35:59.984Z,10.38
2023-04-11T08:36:59.931Z,10.47
2023-04-11T08:37:59.918Z,10.60
2023-04-11T08:38:59.914Z,10.68
2023-04-11T08:39:59.881Z,10.85
2023-04-11T08:41:00.279Z,10.84
2023-04-11T08:41:59.885Z,10.88
2023-04-11T08:42:59.846Z,10.82
2023-04-11T08:43:59.836Z,11.00
2023-04-11T08:44:59.826Z,11.11
2023-04-11T08:45:59.843Z,11.27
2023-04-11T08:46:59.803Z,11.42
2023-04-11T08:47:59.805Z,11.36
2023-04-11T08:48:59.800Z,11.37
2023-04-11T08:49:59.833Z,11.64
2023-04-11T08:50:59.788Z,11.83
2023-04-11T08:51:59.741Z,11.75
2023-04-11T08:52:59.738Z,11.99
2023-04-11T08:53:59.726Z,11.96
2023-04-11T08:55:00.013Z,11.82
2023-04-11T08:55:59.743Z,11.60
2023-04-11T08:56:59.692Z,12.01
2023-04-11T08:57:59.675Z,12.20
2023-04-11T08:58:59.692Z,12.41
2023-04-11T08:59:59.667Z,12.64
2023-04-11T09:00:59.733Z,12.34
2023-04-11T09:01:59.714Z,12.09
2023-04-11T09:02:59.756Z,12.05
2023-04-11T09:03:59.772Z,11.82
2023-04-11T09:04:59.688Z,11.78
2023-04-11T09:05:59.657Z,11.72
2023-04-11T09:07:01.174Z,11.70
2023-04-11T09:07:59.801Z,11.64
2023-04-11T09:08:59.547Z,11.58
2023-04-11T09:09:59.557Z,11.73
2023-04-11T09:10:59.561Z,11.86
2023-04-11T09:11:59.513Z,12.02
2023-04-11T09:12:59.540Z,11.73
2023-04-11T09:13:59.491Z,11.91
2023-04-11T09:14:59.492Z,12.31
2023-04-11T09:15:59.536Z,12.74
2023-04-11T09:16:59.482Z,12.78
2023-04-11T09:18:01.027Z,12.70
2023-04-11T09:18:59.463Z,12.54
2023-04-11T09:19:59.428Z,12.29
2023-04-11T09:20:59.441Z,12.09
2023-04-11T09:21:59.471Z,11.70
2023-04-11T09:22:59.406Z,11.42
2023-04-11T09:23:59.382Z,11.15
2023-04-11T09:24:59.376Z,10.88
2023-04-11T09:25:59.365Z,10.97
2023-04-11T09:26:59.371Z,10.79
2023-04-11T09:27:59.337Z,10.78
2023-04-11T09:28:59.612Z,10.76
2023-04-11T09:29:59.319Z,10.85
2023-04-11T09:30:59.336Z,10.88
2023-04-11T09:31:59.316Z,10.86
2023-04-11T09:32:59.377Z,10.85
2023-04-11T09:33:59.568Z,11.00
2023-04-11T09:34:59.266Z,11.36
2023-04-11T09:35:59.310Z,11.28
2023-04-11T09:36:59.318Z,11.57
2023-04-11T09:37:59.246Z,11.78
2023-04-11T09:38:59.307Z,11.64
2023-04-11T09:39:59.214Z,11.85
2023-04-11T09:40:59.197Z,12.13
2023-04-11T09:41:59.223Z,12.46
2023-04-11T09:42:59.174Z,12.50
2023-04-11T09:43:59.305Z,12.31
2023-04-11T09:44:59.148Z,12.10
2023-04-11T09:45:59.569Z,12.21
2023-04-11T09:46:59.199Z,12.14
2023-04-11T09:47:59.167Z,12.10
2023-04-11T09:48:59.110Z,12.09
2023-04-11T09:49:59.101Z,12.01
2023-04-11T09:50:59.130Z,11.70
2023-04-11T09:51:59.066Z,11.58
2023-04-11T09:52:59.509Z,11.40
2023-04-11T09:53:59.285Z,11.24
2023-04-11T09:54:59.036Z,11.37
2023-04-11T09:55:59.038Z,11.32
2023-04-11T09:56:59.015Z,11.19
2023-04-11T09:57:59.008Z,11.35
2023-04-11T09:58:58.992Z,11.35
2023-04-11T09:59:58.978Z,11.42
2023-04-11T10:00:58.981Z,11.60
2023-04-11T10:01:59.065Z,11.70
2023-04-11T10:02:59.323Z,12.09
2023-04-11T10:03:59.132Z,12.14
2023-04-11T10:04:58.974Z,12.45
2023-04-11T10:05:58.917Z,12.77
2023-04-11T10:06:58.886Z,12.97
2023-04-11T10:07:58.886Z,13.28
2023-04-11T10:08:58.867Z,13.28
2023-04-11T10:09:58.891Z,13.10
2023-04-11T10:10:58.874Z,13.39
2023-04-11T10:11:58.854Z,13.73
2023-04-11T10:12:58.823Z,13.96
2023-04-11T10:13:58.966Z,13.75
2023-04-11T10:14:58.807Z,13.71
2023-04-11T10:15:58.876Z,13.70
2023-04-11T10:16:58.777Z,13.28
2023-04-11T10:17:58.843Z,13.32
2023-04-11T10:18:58.752Z,13.64
2023-04-11T10:19:58.759Z,13.71
2023-04-11T10:20:58.761Z,13.48
2023-04-11T10:21:58.726Z,13.78
2023-04-11T10:22:58.725Z,14.00
2023-04-11T10:23:58.702Z,14.09
2023-04-11T10:24:58.699Z,14.18
2023-04-11T10:25:58.760Z,14.15
2023-04-11T10:26:58.661Z,14.17
2023-04-11T10:27:58.664Z,14.20
2023-04-11T10:28:58.684Z,14.46
2023-04-11T10:29:58.643Z,14.64
2023-04-11T10:30:58.673Z,14.91
2023-04-11T10:31:58.856Z,14.81
2023-04-11T10:32:58.620Z,14.58
2023-04-11T10:33:58.607Z,14.94
2023-04-11T10:34:58.576Z,15.06
2023-04-11T10:35:58.635Z,14.72
2023-04-11T10:36:58.548Z,14.57
2023-04-11T10:37:58.544Z,14.94
2023-04-11T10:38:58.537Z,14.72
2023-04-11T10:39:58.520Z,14.89
2023-04-11T10:40:58.663Z,15.20
2023-04-11T10:41:58.561Z,15.03
2023-04-11T10:42:58.484Z,14.58
2023-04-11T10:43:58.675Z,14.52
2023-04-11T10:44:58.466Z,14.54
2023-04-11T10:45:58.481Z,14.51
2023-04-11T10:46:58.463Z,14.78
2023-04-11T10:47:58.481Z,15.02
2023-04-11T10:48:58.429Z,15.09
2023-04-11T10:49:58.412Z,15.02
2023-04-11T10:50:58.414Z,14.95
2023-04-11T10:51:58.383Z,15.17
2023-04-11T10:52:58.385Z,15.41
2023-04-11T10:53:58.483Z,15.34
2023-04-11T10:54:58.345Z,15.01
2023-04-11T10:55:58.359Z,14.98
2023-04-11T10:56:58.366Z,15.21
2023-04-11T10:57:58.354Z,15.32
2023-04-11T10:58:58.301Z,15.32
2023-04-11T10:59:58.302Z,15.25
2023-04-11T11:00:58.337Z,15.23
2023-04-11T11:01:58.309Z,15.16
2023-04-11T11:02:58.491Z,14.84
2023-04-11T11:03:58.625Z,14.50
2023-04-11T11:04:58.287Z,14.99
2023-04-11T11:05:58.253Z,15.09
2023-04-11T11:06:58.240Z,15.16
2023-04-11T11:07:58.201Z,15.07
2023-04-11T11:08:58.198Z,14.84
2023-04-11T11:09:58.181Z,14.83
2023-04-11T11:10:58.633Z,15.11
2023-04-11T11:11:58.155Z,14.61
2023-04-11T11:12:58.145Z,14.32
2023-04-11T11:13:58.506Z,14.46
2023-04-11T11:14:58.131Z,14.02
2023-04-11T11:15:58.196Z,13.92
2023-04-11T11:16:58.198Z,13.85
2023-04-11T11:17:58.123Z,13.49
2023-04-11T11:18:58.075Z,13.97
2023-04-11T11:19:58.067Z,14.28
2023-04-11T11:20:58.068Z,14.40
2023-04-11T11:21:58.039Z,14.42
2023-04-11T11:22:58.030Z,14.43
2023-04-11T11:23:58.432Z,14.37
2023-04-11T11:24:58.012Z,14.32
2023-04-11T11:25:58.005Z,14.14
2023-04-11T11:26:58.024Z,14.15
2023-04-11T11:27:57.976Z,13.97
2023-04-11T11:28:57.991Z,13.66
2023-04-11T11:29:57.985Z,13.25
2023-04-11T11:30:57.973Z,13.01
2023-04-11T11:31:57.952Z,12.70
2023-04-11T11:32:57.966Z,12.52
2023-04-11T11:34:04.803Z,12.29
2023-04-11T11:34:58.042Z,12.09
2023-04-11T11:35:57.896Z,11.95
2023-04-11T11:36:57.929Z,11.60
2023-04-11T11:37:57.865Z,11.24
2023-04-11T11:38:58.060Z,10.88
2023-04-11T11:39:57.843Z,10.68
2023-04-11T11:40:57.835Z,10.94
2023-04-11T11:41:57.830Z,11.24
2023-04-11T11:42:57.824Z,11.49
2023-04-11T11:43:58.153Z,11.75
2023-04-11T11:44:57.794Z,12.01
2023-04-11T11:45:57.839Z,11.95
2023-04-11T11:46:57.756Z,12.02
2023-04-11T11:47:57.929Z,12.17
2023-04-11T11:48:57.982Z,12.23
2023-04-11T11:49:57.727Z,12.28
2023-04-11T11:50:57.784Z,12.45
2023-04-11T11:51:57.698Z,12.53
2023-04-11T11:52:57.689Z,12.46
2023-04-11T11:53:57.680Z,12.37
2023-04-11T11:54:57.675Z,12.04
2023-04-11T11:55:57.673Z,11.55
2023-04-11T11:56:57.652Z,11.29
2023-04-11T11:57:57.649Z,10.99
2023-04-11T11:58:57.804Z,10.84
2023-04-11T11:59:57.642Z,10.61
2023-04-11T12:00:57.623Z,10.51
2023-04-11T12:01:57.674Z,10.41
2023-04-11T12:02:57.679Z,10.30
2023-04-11T12:03:57.994Z,10.38
2023-04-11T12:04:57.856Z,10.52
2023-04-11T12:05:57.607Z,10.66
2023-04-11T12:06:57.530Z,10.74
2023-04-11T12:07:57.526Z,11.10
2023-04-11T12:08:57.522Z,11.55
2023-04-11T12:09:57.498Z,11.90
2023-04-11T12:10:57.516Z,12.29
2023-04-11T12:11:57.481Z,12.42
2023-04-11T12:12:57.469Z,12.74
2023-04-11T12:13:57.590Z,12.90
2023-04-11T12:14:57.446Z,13.14
2023-04-11T12:15:57.489Z,13.41
2023-04-11T12:16:57.422Z,13.70
2023-04-11T12:17:57.526Z,13.84
2023-04-11T12:18:57.435Z,13.57
2023-04-11T12:19:57.385Z,13.29
2023-04-11T12:20:57.386Z,13.42
2023-04-11T12:21:57.372Z,13.62
2023-04-11T12:22:57.354Z,13.52
2023-04-11T12:23:57.690Z,13.59
2023-04-11T12:24:57.331Z,13.77
2023-04-11T12:25:57.315Z,13.71
2023-04-11T12:27:06.480Z,13.67
2023-04-11T12:27:58.310Z,13.51
2023-04-11T12:28:57.651Z,13.54
2023-04-11T12:29:57.278Z,13.55
2023-04-11T12:30:57.284Z,13.73
2023-04-11T12:31:57.273Z,13.92
2023-04-11T12:32:57.284Z,13.91
2023-04-11T12:33:57.439Z,13.96
2023-04-11T12:34:57.217Z,13.97
2023-04-11T12:35:57.208Z,13.67
2023-04-11T12:36:57.233Z,13.57
2023-04-11T12:37:57.184Z,13.30
2023-04-11T12:38:57.291Z,13.11
2023-04-11T12:39:57.153Z,12.86
2023-04-11T12:41:19.639Z,12.77
2023-04-11T12:41:58.157Z,12.77
2023-04-11T12:42:57.668Z,12.83
2023-04-11T12:43:57.378Z,13.03
2023-04-11T12:44:57.149Z,12.97
2023-04-11T12:45:57.084Z,13.11
2023-04-11T12:46:57.124Z,13.28
2023-04-11T12:47:57.104Z,13.59
2023-04-11T12:48:57.614Z,13.59
2023-04-11T12:49:57.128Z,13.71
2023-04-11T12:50:57.035Z,13.54
2023-04-11T12:51:57.058Z,13.59
2023-04-11T12:52:57.021Z,13.73
2023-04-11T12:53:57.003Z,13.75
2023-04-11T12:54:56.987Z,13.96
2023-04-11T12:55:57.000Z,14.20
2023-04-11T12:56:56.993Z,14.27
2023-04-11T12:57:56.962Z,14.35
2023-04-11T12:58:57.437Z,14.46
2023-04-11T12:59:56.957Z,14.61
2023-04-11T13:00:56.922Z,14.75
2023-04-11T13:01:57.079Z,14.62
2023-04-11T13:02:57.133Z,14.61
2023-04-11T13:03:57.057Z,14.61
2023-04-11T13:04:57.006Z,14.51
2023-04-11T13:05:56.950Z,14.39
2023-04-11T13:06:56.872Z,14.46
2023-04-11T13:07:56.847Z,14.40